Time;durP1;ratioP1;P1;durP2;ratioP2;P2;SDS_P1;SDS_P2;PMS_P1;PMS_P2;Temp;Humidity;BMP_temperature;BMP_pressure;BME280_temperature;BME280_humidity;BME280_pressure;Samples;Min_cycle;Max_cycle;Signal;HPM_P1;HPM_P2
2022/04/10 00:01:55;;;;;;;1.40;1.40;;;17.00;63.80;;;;;;5006637;28;43919;-79
2022/04/10 00:04:23;;;;;;;1.30;1.30;;;17.20;63.30;;;;;;5008452;28;43692;-80
2022/04/10 00:06:51;;;;;;;1.50;1.50;;;17.40;62.80;;;;;;5008081;28;44020;-80
2022/04/10 00:09:19;;;;;;;1.43;1.43;;;17.60;62.50;;;;;;5008110;28;44192;-79
2022/04/10 00:11:46;;;;;;;1.30;1.30;;;17.70;62.00;;;;;;5006841;28;43930;-80
2022/04/10 00:14:14;;;;;;;1.10;1.10;;;17.70;61.90;;;;;;5009730;28;43409;-79
2022/04/10 00:16:44;;;;;;;1.40;1.40;;;17.60;61.90;;;;;;5007603;28;45134;-79
2022/04/10 00:19:12;;;;;;;1.40;1.40;;;17.50;61.90;;;;;;5007691;28;43913;-79
2022/04/10 00:21:41;;;;;;;1.20;1.20;;;17.40;62.00;;;;;;5007841;28;44173;-80
2022/04/10 00:24:11;;;;;;;1.30;1.30;;;17.30;62.20;;;;;;4999898;28;44053;-79
2022/04/10 00:26:39;;;;;;;1.20;1.20;;;17.20;62.40;;;;;;4996450;28;44995;-80
2022/04/10 00:29:07;;;;;;;1.30;1.30;;;17.10;62.60;;;;;;5007626;28;43412;-79
2022/04/10 00:31:35;;;;;;;1.30;1.30;;;17.10;62.80;;;;;;5007785;28;43941;-80
2022/04/10 00:34:04;;;;;;;1.10;1.10;;;17.00;63.60;;;;;;5007907;28;43815;-80
2022/04/10 00:36:32;;;;;;;1.27;1.27;;;17.00;63.80;;;;;;5005878;28;45422;-79
2022/04/10 00:39:01;;;;;;;1.20;1.20;;;17.10;63.90;;;;;;5007281;28;43909;-80
2022/04/10 00:41:31;;;;;;;1.40;1.30;;;17.20;63.50;;;;;;5007746;28;43356;-81
2022/04/10 00:44:03;;;;;;;1.30;1.30;;;17.30;63.00;;;;;;5006953;28;43627;-79
2022/04/10 00:46:32;;;;;;;1.10;1.10;;;17.30;62.70;;;;;;5005884;28;45759;-80
2022/04/10 00:49:00;;;;;;;1.40;1.40;;;17.30;62.50;;;;;;5005665;28;44763;-79
2022/04/10 00:51:41;;;;;;;1.10;1.10;;;17.20;62.60;;;;;;5005849;28;43365;-80
2022/04/10 00:54:13;;;;;;;1.20;1.20;;;17.10;62.70;;;;;;5006332;28;43954;-80
2022/04/10 00:56:41;;;;;;;1.30;1.30;;;17.00;62.90;;;;;;5005792;28;46305;-79
2022/04/10 00:59:09;;;;;;;1.30;1.30;;;17.00;63.10;;;;;;5006008;28;44563;-79
2022/04/10 01:01:38;;;;;;;1.20;1.20;;;17.00;63.20;;;;;;5007894;28;43842;-78
2022/04/10 01:04:25;;;;;;;1.30;1.30;;;16.90;63.30;;;;;;5005361;28;43886;-79
2022/04/10 01:06:54;;;;;;;1.40;1.40;;;16.90;63.40;;;;;;5000129;28;44555;-77
2022/04/10 01:09:23;;;;;;;1.40;1.40;;;16.90;63.50;;;;;;4998960;28;43981;-78
2022/04/10 01:11:52;;;;;;;1.10;1.10;;;16.90;63.50;;;;;;5006696;28;44092;-77
2022/04/10 01:14:22;;;;;;;1.20;1.20;;;16.90;64.10;;;;;;5005428;28;44006;-77
2022/04/10 01:16:50;;;;;;;1.30;1.30;;;16.90;64.00;;;;;;5004681;28;43926;-78
2022/04/10 01:19:18;;;;;;;1.30;1.30;;;17.10;63.70;;;;;;4986098;28;43939;-79
2022/04/10 01:21:48;;;;;;;1.40;1.40;;;17.30;63.20;;;;;;5004860;28;43981;-79
2022/04/10 01:24:18;;;;;;;1.40;1.40;;;17.40;62.70;;;;;;5005053;28;44010;-78
2022/04/10 01:26:47;;;;;;;1.30;1.30;;;17.60;62.30;;;;;;5003902;28;47024;-79
2022/04/10 01:29:20;;;;;;;1.20;1.20;;;17.60;61.90;;;;;;5004629;28;44495;-77
2022/04/10 01:31:48;;;;;;;1.10;1.10;;;17.60;61.90;;;;;;5004748;28;43953;-78
2022/04/10 01:34:17;;;;;;;1.10;1.10;;;17.50;61.80;;;;;;5006550;28;44105;-77
2022/04/10 01:36:45;;;;;;;1.13;1.13;;;17.40;61.80;;;;;;5006050;28;45100;-78
2022/04/10 01:39:15;;;;;;;1.33;1.33;;;17.30;62.00;;;;;;5004453;28;44994;-78
2022/04/10 01:41:46;;;;;;;1.27;1.20;;;17.20;62.20;;;;;;5004739;28;44060;-78
2022/04/10 01:44:15;;;;;;;1.20;1.20;;;17.20;62.50;;;;;;5005044;28;44084;-79
2022/04/10 01:46:43;;;;;;;1.20;1.20;;;17.10;62.70;;;;;;5004294;28;44339;-79
2022/04/10 01:49:12;;;;;;;1.20;1.20;;;17.00;62.80;;;;;;5004178;28;44469;-79
2022/04/10 01:51:40;;;;;;;1.20;1.20;;;17.00;63.00;;;;;;5004479;28;43947;-78
2022/04/10 01:54:08;;;;;;;1.10;1.10;;;17.00;63.80;;;;;;5004779;28;44033;-79
2022/04/10 01:56:38;;;;;;;1.30;1.30;;;17.10;63.60;;;;;;5005099;28;45672;-79
2022/04/10 01:59:09;;;;;;;1.27;1.27;;;17.30;63.20;;;;;;5007531;28;44756;-79
2022/04/10 02:01:37;;;;;;;1.20;1.20;;;17.40;63.40;;;;;;5007784;28;43970;-79
2022/04/10 02:04:06;;;;;;;1.50;1.50;;;17.50;62.50;;;;;;5009898;28;44046;-78
2022/04/10 02:06:35;;;;;;;1.20;1.20;;;17.50;62.20;;;;;;5007887;28;44083;-79
2022/04/10 02:09:07;;;;;;;1.20;1.20;;;17.40;62.00;;;;;;5007789;28;44658;-79
2022/04/10 02:11:35;;;;;;;1.20;1.20;;;17.30;62.10;;;;;;5007967;28;44040;-79
2022/04/10 02:14:04;;;;;;;1.30;1.30;;;17.20;62.30;;;;;;5008184;28;44266;-79
2022/04/10 02:16:33;;;;;;;1.20;1.20;;;17.10;62.40;;;;;;5007726;28;45340;-79
2022/04/10 02:19:02;;;;;;;1.27;1.27;;;17.10;62.70;;;;;;5008974;28;44013;-79
2022/04/10 02:21:31;;;;;;;1.40;1.40;;;17.00;62.90;;;;;;5007677;28;43900;-79
2022/04/10 02:23:59;;;;;;;1.20;1.20;;;17.00;63.00;;;;;;5007974;28;43438;-78
2022/04/10 02:26:28;;;;;;;1.20;1.20;;;16.90;63.10;;;;;;5006907;28;46616;-79
2022/04/10 02:28:56;;;;;;;1.20;1.20;;;16.90;63.20;;;;;;5008822;28;43832;-79
2022/04/10 02:31:25;;;;;;;1.20;1.20;;;16.90;63.90;;;;;;5007459;28;43568;-79
2022/04/10 02:33:54;;;;;;;1.40;1.40;;;17.00;63.80;;;;;;5007575;28;43610;-79
2022/04/10 02:36:22;;;;;;;1.40;1.40;;;17.20;63.60;;;;;;5000764;28;45713;-79
2022/04/10 02:38:50;;;;;;;1.10;1.10;;;17.40;63.00;;;;;;5006901;28;44246;-79
2022/04/10 02:41:22;;;;;;;1.20;1.20;;;17.50;62.50;;;;;;5002954;28;44044;-79
2022/04/10 02:43:54;;;;;;;1.07;1.07;;;17.50;62.20;;;;;;5007810;28;43973;-78
2022/04/10 02:46:22;;;;;;;1.27;1.27;;;17.50;62.20;;;;;;5006998;28;45689;-79
2022/04/10 02:48:50;;;;;;;1.20;1.20;;;17.40;62.00;;;;;;5006857;28;44792;-79
2022/04/10 02:51:22;;;;;;;1.10;1.10;;;17.30;62.00;;;;;;5007133;28;43998;-79
2022/04/10 02:53:54;;;;;;;1.30;1.30;;;17.20;62.20;;;;;;5007635;28;44041;-79
2022/04/10 02:56:22;;;;;;;1.00;1.00;;;17.20;62.60;;;;;;5006847;28;45616;-79
2022/04/10 02:58:50;;;;;;;1.30;1.30;;;17.10;62.70;;;;;;5006775;28;44096;-79
2022/04/10 03:01:18;;;;;;;1.20;1.20;;;17.00;62.80;;;;;;5007096;28;43955;-79
2022/04/10 03:03:46;;;;;;;1.27;1.27;;;17.00;63.00;;;;;;5007419;28;43953;-79
2022/04/10 03:06:14;;;;;;;1.20;1.20;;;16.90;63.10;;;;;;5008311;28;44960;-79
2022/04/10 03:08:43;;;;;;;1.30;1.30;;;16.90;63.80;;;;;;5006651;28;44392;-79
2022/04/10 03:11:11;;;;;;;1.10;1.10;;;17.00;63.80;;;;;;5006981;28;43844;-79
2022/04/10 03:13:40;;;;;;;1.17;1.17;;;17.10;63.40;;;;;;5007197;28;43954;-79
2022/04/10 03:16:09;;;;;;;1.10;1.10;;;17.30;63.10;;;;;;5007914;28;44557;-79
2022/04/10 03:18:37;;;;;;;1.30;1.30;;;17.40;62.70;;;;;;5006583;28;43981;-79
2022/04/10 03:21:05;;;;;;;1.20;1.20;;;17.40;62.40;;;;;;5008626;28;43436;-79
2022/04/10 03:23:33;;;;;;;1.20;1.20;;;17.30;62.10;;;;;;5007274;28;43394;-79
2022/04/10 03:26:02;;;;;;;1.30;1.30;;;17.20;62.20;;;;;;5007237;28;43982;-79
2022/04/10 03:28:32;;;;;;;1.20;1.20;;;17.20;62.50;;;;;;4990295;28;43931;-79
2022/04/10 03:31:00;;;;;;;1.20;1.20;;;17.10;62.70;;;;;;5007972;28;43819;-79
2022/04/10 03:33:29;;;;;;;1.00;1.00;;;17.00;62.90;;;;;;4990287;28;44121;-79
2022/04/10 03:35:58;;;;;;;1.30;1.30;;;16.90;63.00;;;;;;4989477;28;45470;-78
2022/04/10 03:38:26;;;;;;;1.20;1.20;;;16.90;63.20;;;;;;4989401;28;43935;-79
2022/04/10 03:40:54;;;;;;;1.00;1.00;;;16.80;63.30;;;;;;4989669;28;43427;-78
2022/04/10 03:43:25;;;;;;;1.20;1.20;;;16.90;63.50;;;;;;4990019;28;43986;-79
2022/04/10 03:45:54;;;;;;;1.30;1.30;;;16.80;63.60;;;;;;4989266;28;45374;-79
2022/04/10 03:48:22;;;;;;;1.10;1.10;;;16.80;64.10;;;;;;4989262;28;45186;-79
2022/04/10 03:50:50;;;;;;;1.20;1.20;;;17.00;63.90;;;;;;4989442;28;43905;-79
2022/04/10 03:53:19;;;;;;;1.17;1.17;;;17.10;63.40;;;;;;4986647;28;43573;-79
2022/04/10 03:55:48;;;;;;;1.20;1.20;;;17.30;63.00;;;;;;4987767;28;45704;-79
2022/04/10 03:58:18;;;;;;;1.00;1.00;;;17.40;62.50;;;;;;4989011;28;45305;-79
2022/04/10 04:00:48;;;;;;;1.20;1.20;;;17.40;62.30;;;;;;4986150;28;44053;-79
2022/04/10 04:03:20;;;;;;;1.10;1.10;;;17.40;62.20;;;;;;4988826;28;43608;-79
2022/04/10 04:05:48;;;;;;;1.10;1.10;;;17.30;62.20;;;;;;4985846;28;45731;-79
2022/04/10 04:08:17;;;;;;;1.13;1.13;;;17.20;62.20;;;;;;4988565;28;44021;-79
2022/04/10 04:10:46;;;;;;;1.37;1.37;;;17.10;62.40;;;;;;4989187;28;44029;-79
2022/04/10 04:13:14;;;;;;;1.30;1.30;;;17.10;62.70;;;;;;4989597;28;44021;-79
2022/04/10 04:15:43;;;;;;;1.20;1.20;;;17.00;62.80;;;;;;4988922;28;44721;-79
2022/04/10 04:18:13;;;;;;;1.10;1.10;;;17.00;62.90;;;;;;4989138;28;43974;-78
2022/04/10 04:20:41;;;;;;;1.27;1.27;;;16.90;63.00;;;;;;4984945;28;44065;-78
2022/04/10 04:23:09;;;;;;;1.27;1.27;;;16.90;63.10;;;;;;4983263;28;43972;-79
2022/04/10 04:25:38;;;;;;;1.30;1.30;;;16.90;63.80;;;;;;4998330;28;45549;-79
2022/04/10 04:28:08;;;;;;;1.20;1.20;;;17.00;63.80;;;;;;4986210;28;43959;-79
2022/04/10 04:30:36;;;;;;;1.30;1.30;;;17.20;63.50;;;;;;5005144;28;44261;-79
2022/04/10 04:33:05;;;;;;;1.40;1.40;;;17.40;63.00;;;;;;5005887;28;43400;-79
2022/04/10 04:35:35;;;;;;;1.13;1.13;;;17.50;62.50;;;;;;5005265;28;44053;-79
2022/04/10 04:38:03;;;;;;;1.10;1.10;;;17.50;62.10;;;;;;5005317;28;43826;-79
2022/04/10 04:40:33;;;;;;;1.30;1.30;;;17.50;62.00;;;;;;5005603;28;44339;-79
2022/04/10 04:43:02;;;;;;;1.27;1.27;;;17.40;61.90;;;;;;5005772;28;44046;-78
2022/04/10 04:45:33;;;;;;;1.23;1.23;;;17.30;61.90;;;;;;5005328;28;45017;-79
2022/04/10 04:48:06;;;;;;;1.50;1.50;;;17.20;62.20;;;;;;5005145;28;44565;-78
2022/04/10 04:50:36;;;;;;;1.30;1.30;;;17.10;62.40;;;;;;5005289;28;44038;-79
2022/04/10 04:53:06;;;;;;;1.20;1.20;;;17.00;62.50;;;;;;5005835;28;43452;-79
2022/04/10 04:55:35;;;;;;;1.40;1.40;;;17.00;63.50;;;;;;5004306;28;44044;-79
2022/04/10 04:58:04;;;;;;;1.37;1.37;;;16.90;62.90;;;;;;5004985;28;44589;-78
2022/04/10 05:00:32;;;;;;;1.50;1.50;;;16.90;63.00;;;;;;5005356;28;43289;-79
2022/04/10 05:03:03;;;;;;;1.20;1.20;;;16.90;63.50;;;;;;5005604;28;43425;-78
2022/04/10 05:05:31;;;;;;;1.00;1.00;;;16.90;63.80;;;;;;5004861;28;46326;-79
2022/04/10 05:08:10;;;;;;;1.50;1.50;;;17.10;63.60;;;;;;5004595;28;44036;-78
2022/04/10 05:10:38;;;;;;;1.20;1.20;;;17.30;63.10;;;;;;5006245;28;44017;-79
2022/04/10 05:13:08;;;;;;;1.30;1.30;;;17.40;62.60;;;;;;5005211;28;43895;-79
2022/04/10 05:15:37;;;;;;;1.33;1.33;;;17.40;62.30;;;;;;5004720;28;45073;-79
2022/04/10 05:18:06;;;;;;;1.37;1.37;;;17.40;62.10;;;;;;5004864;28;45369;-78
2022/04/10 05:20:37;;;;;;;1.43;1.43;;;17.30;62.10;;;;;;5004771;28;44139;-78
2022/04/10 05:23:17;;;;;;;1.33;1.20;;;17.20;62.20;;;;;;5000075;28;43962;-79
2022/04/10 05:25:52;;;;;;;1.40;1.40;;;17.10;62.40;;;;;;5003964;28;44049;-79
2022/04/10 05:28:20;;;;;;;1.30;1.30;;;17.10;62.60;;;;;;5004209;28;44058;-78
2022/04/10 05:30:48;;;;;;;1.40;1.40;;;17.00;62.80;;;;;;5005763;28;44075;-78
2022/04/10 05:33:21;;;;;;;1.50;1.50;;;17.00;62.90;;;;;;5008489;28;44050;-79
2022/04/10 05:35:52;;;;;;;1.20;1.20;;;17.00;63.00;;;;;;5007792;28;43997;-78
2022/04/10 05:38:22;;;;;;;1.30;1.30;;;16.90;63.10;;;;;;5007891;28;44635;-79
2022/04/10 05:40:52;;;;;;;1.40;1.40;;;16.90;63.20;;;;;;5008125;28;43399;-78
2022/04/10 05:43:23;;;;;;;1.30;1.30;;;16.90;63.90;;;;;;5008438;28;43953;-78
2022/04/10 05:45:53;;;;;;;1.37;1.37;;;17.00;63.70;;;;;;5007786;28;43877;-77
2022/04/10 05:48:23;;;;;;;1.20;1.20;;;17.20;63.30;;;;;;5007685;28;44778;-78
2022/04/10 05:50:53;;;;;;;1.40;1.40;;;17.40;62.80;;;;;;5007869;28;44002;-78
2022/04/10 05:53:23;;;;;;;1.30;1.30;;;17.40;62.40;;;;;;5008265;28;44016;-78
2022/04/10 05:55:51;;;;;;;1.33;1.33;;;17.50;62.20;;;;;;5007698;28;45403;-78
2022/04/10 05:58:26;;;;;;;1.40;1.40;;;17.40;62.00;;;;;;5007735;28;44013;-78
2022/04/10 06:00:56;;;;;;;1.30;1.30;;;17.30;61.90;;;;;;5003228;28;43477;-78
2022/04/10 06:03:25;;;;;;;1.30;1.30;;;17.20;62.00;;;;;;5008040;28;43919;-78
2022/04/10 06:05:55;;;;;;;1.57;1.57;;;17.20;62.30;;;;;;5007397;28;44193;-78
2022/04/10 06:08:40;;;;;;;1.33;1.33;;;17.10;62.50;;;;;;5007338;28;45672;-77
2022/04/10 06:11:09;;;;;;;1.40;1.40;;;17.00;62.70;;;;;;5007550;28;43947;-77
2022/04/10 06:13:40;;;;;;;1.37;1.37;;;17.00;62.80;;;;;;5007837;28;44195;-77
2022/04/10 06:16:13;;;;;;;1.40;1.40;;;17.00;63.00;;;;;;5023557;28;45893;-78
2022/04/10 06:18:44;;;;;;;1.50;1.50;;;16.90;63.00;;;;;;5007172;28;44744;-79
2022/04/10 06:21:12;;;;;;;1.37;1.37;;;16.90;63.80;;;;;;5007229;28;44054;-77
2022/04/10 06:23:44;;;;;;;1.27;1.27;;;17.00;63.80;;;;;;5007735;28;44012;-78
2022/04/10 06:26:18;;;;;;;1.53;1.53;;;17.10;63.30;;;;;;5006895;28;46207;-78
2022/04/10 06:28:47;;;;;;;1.30;1.30;;;17.20;63.00;;;;;;5007069;28;44708;-78
2022/04/10 06:31:23;;;;;;;1.30;1.30;;;17.20;62.70;;;;;;5001817;28;44127;-80
2022/04/10 06:33:51;;;;;;;1.37;1.37;;;17.10;62.50;;;;;;5009157;28;43451;-77
2022/04/10 06:36:19;;;;;;;1.40;1.40;;;17.00;62.50;;;;;;5007074;28;45341;-78
2022/04/10 06:38:51;;;;;;;1.40;1.40;;;17.00;62.80;;;;;;5006955;28;43796;-77
2022/04/10 06:41:24;;;;;;;1.30;1.30;;;16.90;62.90;;;;;;5007291;28;44013;-77
2022/04/10 06:43:52;;;;;;;1.30;1.30;;;16.90;63.20;;;;;;5006835;28;44061;-77
2022/04/10 06:46:58;;;;;;;1.30;1.30;;;16.90;63.20;;;;;;4948418;28;44054;-77
2022/04/10 06:49:32;;;;;;;1.37;1.37;;;16.80;63.30;;;;;;4947108;28;44038;-78
2022/04/10 06:52:02;;;;;;;1.60;1.60;;;16.80;63.30;;;;;;4977761;28;43963;-77
2022/04/10 06:54:37;;;;;;;1.50;1.50;;;16.80;63.40;;;;;;5007726;28;43878;-77
2022/04/10 06:57:06;;;;;;;1.60;1.60;;;16.70;63.40;;;;;;5006767;28;45129;-77
2022/04/10 06:59:34;;;;;;;1.50;1.50;;;16.80;64.10;;;;;;5006554;28;44044;-77
2022/04/10 07:02:07;;;;;;;1.40;1.40;;;16.80;63.90;;;;;;5007023;28;44027;-78
2022/04/10 07:04:36;;;;;;;1.40;1.40;;;17.00;63.50;;;;;;5007140;28;44254;-77
2022/04/10 07:07:06;;;;;;;1.40;1.40;;;17.20;63.00;;;;;;5006642;28;44115;-76
2022/04/10 07:09:34;;;;;;;1.70;1.70;;;17.40;62.50;;;;;;5008104;28;44004;-77
2022/04/10 07:12:04;;;;;;;1.30;1.30;;;17.50;62.20;;;;;;5006869;28;44037;-77
2022/04/10 07:14:41;;;;;;;1.40;1.40;;;17.50;62.00;;;;;;5007141;28;44222;-78
2022/04/10 07:17:09;;;;;;;1.50;1.50;;;17.40;61.90;;;;;;5006525;28;44057;-78
2022/04/10 07:19:38;;;;;;;1.33;1.33;;;17.30;61.80;;;;;;5006201;28;44038;-78
2022/04/10 07:24:56;;;;;;;1.43;1.43;;;17.10;62.20;;;;;;5006245;28;43925;-78
2022/04/10 07:27:26;;;;;;;1.30;1.30;;;17.10;62.60;;;;;;4988444;28;45605;-78
2022/04/10 07:30:03;;;;;;;1.50;1.50;;;17.00;62.70;;;;;;4989868;28;44528;-78
2022/04/10 07:32:36;;;;;;;1.40;1.40;;;16.90;62.90;;;;;;4990116;28;43814;-78
2022/04/10 07:35:12;;;;;;;1.40;1.40;;;16.90;63.00;;;;;;4986894;28;44040;-77
2022/04/10 07:37:50;;;;;;;1.37;1.37;;;16.80;63.70;;;;;;4991534;28;45088;-78
2022/04/10 07:40:19;;;;;;;1.37;1.37;;;17.00;63.80;;;;;;4986742;28;43977;-79
2022/04/10 07:42:49;;;;;;;1.30;1.30;;;17.10;63.30;;;;;;4987726;28;43870;-77
2022/04/10 07:48:17;;;;;;;1.20;1.20;;;17.20;62.60;;;;;;4989362;28;45850;-77
2022/04/10 07:50:45;;;;;;;1.33;1.33;;;17.10;62.50;;;;;;4989189;28;44041;-76
2022/04/10 07:53:17;;;;;;;1.40;1.40;;;17.00;62.60;;;;;;4989557;28;44029;-75
2022/04/10 07:55:51;;;;;;;1.50;1.50;;;17.00;62.90;;;;;;4989959;28;44006;-76
2022/04/10 07:58:20;;;;;;;1.40;1.40;;;16.90;63.00;;;;;;4989960;28;45452;-77
2022/04/10 08:00:48;;;;;;;1.17;1.17;;;16.90;63.20;;;;;;4989163;28;44013;-77
2022/04/10 08:03:17;;;;;;;1.40;1.40;;;16.90;63.30;;;;;;4980377;28;43977;-79
2022/04/10 08:05:58;;;;;;;1.20;1.20;;;16.80;63.30;;;;;;4986503;28;43935;-79
2022/04/10 08:08:31;;;;;;;1.50;1.50;;;16.80;63.30;;;;;;5007884;28;44083;-78
2022/04/10 08:10:59;;;;;;;1.70;1.60;;;16.80;63.30;;;;;;4989369;28;46101;-77
2022/04/10 08:13:29;;;;;;;1.30;1.30;;;16.80;63.40;;;;;;5007191;28;44025;-77
2022/04/10 08:15:57;;;;;;;1.50;1.50;;;16.70;63.30;;;;;;5007749;28;44122;-77
2022/04/10 08:18:25;;;;;;;1.60;1.43;;;16.70;63.40;;;;;;5007103;28;44010;-77
2022/04/10 08:20:53;;;;;;;1.40;1.40;;;16.70;63.70;;;;;;5006989;28;44047;-77
2022/04/10 08:23:21;;;;;;;1.63;1.50;;;16.80;64.00;;;;;;4989605;28;44038;-77
2022/04/10 08:25:49;;;;;;;1.33;1.33;;;16.90;63.80;;;;;;4990386;28;44010;-78
2022/04/10 08:28:17;;;;;;;1.33;1.33;;;17.00;63.50;;;;;;5008260;28;43604;-77
2022/04/10 08:30:47;;;;;;;2.33;1.80;;;17.20;63.00;;;;;;4989993;28;44035;-77
2022/04/10 08:33:15;;;;;;;1.50;1.40;;;17.40;62.40;;;;;;5008712;28;43987;-77
2022/04/10 08:35:43;;;;;;;1.40;1.40;;;17.50;62.00;;;;;;5008081;28;44005;-77
2022/04/10 08:38:11;;;;;;;1.30;1.30;;;17.70;61.70;;;;;;5007802;28;44695;-78
2022/04/10 08:40:39;;;;;;;2.43;1.47;;;17.80;61.30;;;;;;4988874;28;44043;-80
2022/04/10 08:43:07;;;;;;;1.70;1.70;;;17.90;60.90;;;;;;5006870;28;44007;-77
2022/04/10 08:45:35;;;;;;;1.60;1.50;;;18.10;61.30;;;;;;5007378;28;44064;-78
2022/04/10 08:48:05;;;;;;;3.50;1.63;;;18.10;60.30;;;;;;4988310;28;44069;-77
2022/04/10 08:50:34;;;;;;;1.63;1.60;;;18.20;60.00;;;;;;5006853;28;43992;-77
2022/04/10 08:53:02;;;;;;;3.67;3.37;;;18.30;59.80;;;;;;5006998;28;43865;-78
2022/04/10 08:55:30;;;;;;;3.20;2.97;;;18.30;59.30;;;;;;4988988;28;43920;-78
2022/04/10 08:57:58;;;;;;;2.80;2.60;;;18.10;57.80;;;;;;4988351;28;43979;-78
2022/04/10 09:00:26;;;;;;;3.13;2.43;;;18.00;58.60;;;;;;4988477;28;44906;-77
2022/04/10 09:02:54;;;;;;;2.97;2.67;;;17.80;59.20;;;;;;5006476;28;43843;-79
2022/04/10 09:05:24;;;;;;;2.63;1.90;;;17.60;59.60;;;;;;5006186;28;43858;-79
2022/04/10 09:08:09;;;;;;;3.63;2.20;;;17.50;60.00;;;;;;5006440;28;43984;-77
2022/04/10 09:10:55;;;;;;;7.30;2.50;;;17.40;60.40;;;;;;4988591;28;44691;-77
2022/04/10 09:13:31;;;;;;;3.23;2.60;;;17.20;61.20;;;;;;5006214;28;43950;-77
2022/04/10 09:16:18;;;;;;;2.63;2.33;;;17.20;62.40;;;;;;4989070;28;44201;-78
2022/04/10 09:18:47;;;;;;;5.03;2.67;;;17.30;62.00;;;;;;5007130;28;44703;-77
2022/04/10 09:21:17;;;;;;;3.97;2.60;;;17.40;62.10;;;;;;4988510;28;44289;-77
2022/04/10 09:24:09;;;;;;;4.73;2.30;;;17.40;62.30;;;;;;5007076;28;43897;-78
2022/04/10 09:26:44;;;;;;;3.47;2.30;;;17.40;62.40;;;;;;5003094;28;43855;-78
2022/04/10 09:29:12;;;;;;;2.27;1.90;;;17.30;62.00;;;;;;4985415;28;44668;-78
2022/04/10 09:31:40;;;;;;;3.00;2.43;;;17.30;62.20;;;;;;4989486;28;45037;-78
2022/04/10 09:34:09;;;;;;;2.47;2.37;;;17.30;63.20;;;;;;4988337;28;43863;-79
2022/04/10 09:36:40;;;;;;;3.40;2.27;;;17.20;63.20;;;;;;5006632;28;43909;-78
2022/04/10 09:39:10;;;;;;;10.17;2.50;;;17.20;62.80;;;;;;4988144;28;46161;-79
2022/04/10 09:41:39;;;;;;;4.73;2.57;;;17.20;63.40;;;;;;5006268;28;43923;-78
2022/04/10 09:44:12;;;;;;;12.90;3.27;;;17.20;64.50;;;;;;5006294;28;43997;-78
2022/04/10 09:46:41;;;;;;;6.83;2.40;;;17.20;63.60;;;;;;5006269;28;43998;-77
2022/04/10 09:49:12;;;;;;;6.40;2.70;;;17.30;65.00;;;;;;4987618;28;45862;-77
2022/04/10 09:52:00;;;;;;;10.20;2.93;;;17.30;64.20;;;;;;4988014;28;44744;-76
2022/04/10 09:54:34;;;;;;;3.40;2.60;;;17.40;63.70;;;;;;5006343;28;44053;-78
2022/04/10 09:57:04;;;;;;;7.53;3.00;;;17.50;63.30;;;;;;4988080;28;43451;-76
2022/04/10 09:59:37;;;;;;;6.83;2.90;;;17.60;62.60;;;;;;4987857;28;45386;-76
2022/04/10 10:02:05;;;;;;;5.70;2.50;;;17.70;62.10;;;;;;5006075;28;43434;-76
2022/04/10 10:04:38;;;;;;;5.47;2.60;;;17.80;61.70;;;;;;5005752;28;43962;-77
2022/04/10 10:07:09;;;;;;;3.10;2.77;;;17.80;61.40;;;;;;4987593;28;44284;-76
2022/04/10 10:09:37;;;;;;;2.73;2.23;;;17.80;61.50;;;;;;4987537;28;45702;-77
2022/04/10 10:12:06;;;;;;;2.40;2.30;;;17.70;61.30;;;;;;5006257;28;44036;-75
2022/04/10 10:14:35;;;;;;;4.63;2.80;;;17.60;61.50;;;;;;5208324;22;44043;-70
2022/04/10 10:17:04;;;;;;;2.67;2.47;;;17.50;61.70;;;;;;5021092;28;44866;-70
2022/04/10 10:19:34;;;;;;;5.97;2.93;;;17.40;61.80;;;;;;5029185;28;45063;-71
2022/04/10 10:22:02;;;;;;;5.47;2.50;;;17.30;62.00;;;;;;5029364;28;44078;-71
2022/04/10 10:24:34;;;;;;;8.37;2.70;;;17.30;62.20;;;;;;5029024;28;43967;-71
2022/04/10 10:27:14;;;;;;;5.70;2.70;;;17.20;62.50;;;;;;5023274;28;43937;-71
2022/04/10 10:29:54;;;;;;;7.83;2.97;;;17.20;63.20;;;;;;5023834;28;44157;-71
2022/04/10 10:32:31;;;;;;;4.80;2.80;;;17.30;63.10;;;;;;5027974;28;44809;-71
2022/04/10 10:34:59;;;;;;;6.10;2.90;;;17.40;62.70;;;;;;5029197;28;43427;-71
2022/04/10 10:37:28;;;;;;;5.17;3.00;;;17.40;62.20;;;;;;5029094;28;44015;-72
2022/04/10 10:39:58;;;;;;;3.63;2.80;;;17.40;62.20;;;;;;5028859;28;43800;-71
2022/04/10 10:42:26;;;;;;;3.63;2.80;;;17.30;62.20;;;;;;5028736;28;43977;-71
2022/04/10 10:44:54;;;;;;;2.57;2.37;;;17.20;62.40;;;;;;5028643;28;43456;-71
2022/04/10 10:47:23;;;;;;;3.47;2.70;;;17.20;62.60;;;;;;5028938;28;43944;-71
2022/04/10 10:49:52;;;;;;;2.87;2.67;;;17.10;62.70;;;;;;5028504;28;44870;-71
2022/04/10 10:52:20;;;;;;;2.87;2.67;;;17.10;62.80;;;;;;5028570;28;43965;-71
2022/04/10 10:54:53;;;;;;;2.97;2.77;;;17.10;62.80;;;;;;5028705;28;43476;-71
2022/04/10 10:57:29;;;;;;;3.20;2.93;;;17.10;62.90;;;;;;5010854;28;44035;-71
2022/04/10 11:00:12;;;;;;;2.87;2.30;;;17.00;62.90;;;;;;5028423;28;43977;-70
2022/04/10 11:02:40;;;;;;;4.63;2.73;;;17.00;63.00;;;;;;5028342;28;44001;-71
2022/04/10 11:05:31;;;;;;;6.30;3.07;;;17.00;63.50;;;;;;5028590;28;43849;-71
2022/04/10 11:08:00;;;;;;;9.57;2.80;;;17.10;63.70;;;;;;5027262;28;43931;-72
2022/04/10 11:10:29;;;;;;;8.67;2.70;;;17.30;63.40;;;;;;5028449;28;43727;-71
2022/04/10 11:13:03;;;;;;;8.57;3.03;;;17.40;62.80;;;;;;5028461;28;44335;-71
2022/04/10 11:15:32;;;;;;;3.37;2.90;;;17.50;62.30;;;;;;5021819;28;43803;-72
2022/04/10 11:18:22;;;;;;;6.73;3.00;;;17.60;62.10;;;;;;5022187;28;44020;-72
2022/04/10 11:20:54;;;;;;;4.50;3.00;;;17.60;61.90;;;;;;5027870;28;43890;-71
2022/04/10 11:23:24;;;;;;;4.83;2.60;;;17.50;61.90;;;;;;5027961;28;43937;-71
2022/04/10 11:25:53;;;;;;;8.80;2.60;;;17.40;62.00;;;;;;5027938;28;44019;-72
2022/04/10 11:28:23;;;;;;;3.23;2.50;;;17.40;63.00;;;;;;5028084;28;44084;-72
2022/04/10 11:30:51;;;;;;;3.43;2.33;;;17.30;62.50;;;;;;5009723;28;46227;-72
2022/04/10 11:33:20;;;;;;;6.07;3.30;;;17.20;62.60;;;;;;5027779;28;44027;-72
2022/04/10 11:35:55;;;;;;;4.67;2.90;;;17.20;62.90;;;;;;5027555;28;43341;-71
2022/04/10 11:38:24;;;;;;;2.70;2.53;;;17.20;62.90;;;;;;5028389;28;43941;-72
2022/04/10 11:40:52;;;;;;;4.40;2.70;;;17.10;63.00;;;;;;5027622;28;44044;-72
2022/04/10 11:43:23;;;;;;;5.83;2.63;;;17.10;63.60;;;;;;5027372;28;43925;-71
2022/04/10 11:45:53;;;;;;;5.47;2.67;;;17.20;63.60;;;;;;5027572;28;43996;-72
2022/04/10 11:48:23;;;;;;;7.57;2.77;;;17.30;63.20;;;;;;5021721;28;43997;-72
2022/04/10 11:50:51;;;;;;;4.93;2.60;;;17.50;62.80;;;;;;5009346;28;46247;-71
2022/04/10 11:53:19;;;;;;;5.17;2.67;;;17.50;62.40;;;;;;5021143;28;44017;-71
2022/04/10 11:55:47;;;;;;;4.90;2.90;;;17.50;62.00;;;;;;5009713;28;44124;-72
2022/04/10 11:58:16;;;;;;;5.83;3.13;;;17.50;62.20;;;;;;5021735;28;44204;-71
2022/04/10 12:00:47;;;;;;;5.37;2.80;;;17.40;62.30;;;;;;5027293;28;43933;-72
2022/04/10 12:03:15;;;;;;;2.97;2.40;;;17.30;62.50;;;;;;5027207;28;43917;-72
2022/04/10 12:05:43;;;;;;;7.17;2.43;;;17.30;62.70;;;;;;5009843;28;44131;-71
2022/04/10 12:08:10;;;;;;;2.53;2.43;;;17.20;62.90;;;;;;5027701;28;43896;-71
2022/04/10 12:10:38;;;;;;;4.83;2.90;;;17.20;63.00;;;;;;5026833;28;44921;-72
2022/04/10 12:13:08;;;;;;;2.53;2.33;;;17.20;63.20;;;;;;5027151;28;43306;-71
2022/04/10 12:15:36;;;;;;;3.07;2.13;;;17.10;63.10;;;;;;5026222;28;43956;-71
2022/04/10 12:18:07;;;;;;;3.70;2.40;;;17.10;63.20;;;;;;5027657;28;43573;-72
2022/04/10 12:20:36;;;;;;;2.73;2.30;;;17.10;63.80;;;;;;5027501;28;43995;-72
2022/04/10 12:23:17;;;;;;;7.93;2.73;;;17.10;63.80;;;;;;5027567;28;43852;-73
2022/04/10 12:25:45;;;;;;;3.37;2.80;;;17.30;63.50;;;;;;5027378;28;44063;-71
2022/04/10 12:28:13;;;;;;;5.43;2.67;;;17.40;63.00;;;;;;5027622;28;44023;-72
2022/04/10 12:30:41;;;;;;;2.97;2.50;;;17.50;62.50;;;;;;5026800;28;43984;-71
2022/04/10 12:33:10;;;;;;;2.80;2.60;;;17.60;62.40;;;;;;5009084;28;44776;-71
2022/04/10 12:35:39;;;;;;;4.33;2.60;;;17.50;61.90;;;;;;5027201;28;43446;-71
2022/04/10 12:38:07;;;;;;;4.33;2.90;;;17.50;62.10;;;;;;5027535;28;44016;-71
2022/04/10 12:40:36;;;;;;;3.00;2.70;;;17.40;62.20;;;;;;5025950;28;44994;-71
2022/04/10 12:43:05;;;;;;;5.90;2.70;;;17.30;62.50;;;;;;5027071;28;43386;-72
2022/04/10 12:45:35;;;;;;;2.73;2.50;;;17.30;62.80;;;;;;5009157;28;43446;-72
2022/04/10 12:48:08;;;;;;;3.43;2.83;;;17.20;62.90;;;;;;5027172;28;43790;-71
2022/04/10 12:50:37;;;;;;;2.93;2.50;;;17.20;63.00;;;;;;5025240;28;44060;-71
2022/04/10 12:53:11;;;;;;;3.33;2.43;;;17.10;63.30;;;;;;5027056;28;43948;-72
2022/04/10 12:55:39;;;;;;;3.60;2.27;;;17.10;63.40;;;;;;5026913;28;43956;-72
2022/04/10 12:58:08;;;;;;;4.23;3.07;;;17.10;63.90;;;;;;5009052;28;44315;-71
2022/04/10 13:00:37;;;;;;;2.93;2.70;;;17.10;64.00;;;;;;5026810;28;44813;-71
2022/04/10 13:03:19;;;;;;;2.83;2.63;;;17.20;63.60;;;;;;5026864;28;43897;-71
2022/04/10 13:05:58;;;;;;;4.10;2.10;;;17.30;63.10;;;;;;5026753;28;43442;-71
2022/04/10 13:08:27;;;;;;;2.20;2.00;;;17.30;62.50;;;;;;5026918;28;44344;-71